sensor_id;sensor_type;location;lat;lon;timestamp;pressure;altitude;pressure_sealevel;temperature;humidity
59435;BME280;45241;49.768;8.636;2023-03-01T00:01:26;101273.94;;;3.00;61.68
59435;BME280;45241;49.768;8.636;2023-03-01T00:03:52;101279.88;;;3.26;61.09
59435;BME280;45241;49.768;8.636;2023-03-01T00:06:18;101283.00;;;3.09;61.24
59435;BME280;45241;49.768;8.636;2023-03-01T00:08:44;101277.91;;;2.95;62.37
59435;BME280;45241;49.768;8.636;2023-03-01T00:11:15;101277.44;;;2.66;62.68
59435;BME280;45241;49.768;8.636;2023-03-01T00:13:43;101284.34;;;2.68;63.57
59435;BME280;45241;49.768;8.636;2023-03-01T00:16:14;101281.53;;;2.94;63.22
59435;BME280;45241;49.768;8.636;2023-03-01T00:18:41;101275.47;;;2.92;62.11
59435;BME280;45241;49.768;8.636;2023-03-01T00:21:06;101282.50;;;2.34;63.62
59435;BME280;45241;49.768;8.636;2023-03-01T00:23:33;101285.63;;;2.98;62.78
59435;BME280;45241;49.768;8.636;2023-03-01T00:25:59;101284.75;;;2.86;61.93
59435;BME280;45241;49.768;8.636;2023-03-01T00:28:24;101284.09;;;3.17;61.43
59435;BME280;45241;49.768;8.636;2023-03-01T00:30:49;101283.25;;;3.28;60.59
59435;BME280;45241;49.768;8.636;2023-03-01T00:33:15;101287.66;;;2.94;61.11
59435;BME280;45241;49.768;8.636;2023-03-01T00:35:40;101282.22;;;2.84;61.71
59435;BME280;45241;49.768;8.636;2023-03-01T00:38:05;101282.75;;;3.01;61.56
59435;BME280;45241;49.768;8.636;2023-03-01T00:40:33;101282.88;;;3.10;61.72
59435;BME280;45241;49.768;8.636;2023-03-01T00:42:59;101285.16;;;3.15;61.46
59435;BME280;45241;49.768;8.636;2023-03-01T00:45:25;101281.75;;;2.91;61.42
59435;BME280;45241;49.768;8.636;2023-03-01T00:47:51;101279.00;;;3.03;62.02
59435;BME280;45241;49.768;8.636;2023-03-01T00:50:17;101273.91;;;2.89;61.97
59435;BME280;45241;49.768;8.636;2023-03-01T00:52:43;101261.78;;;2.98;61.57
59435;BME280;45241;49.768;8.636;2023-03-01T00:55:09;101264.13;;;2.67;62.00
59435;BME280;45241;49.768;8.636;2023-03-01T00:57:34;101268.97;;;2.84;62.12
59435;BME280;45241;49.768;8.636;2023-03-01T01:00:00;101264.03;;;2.91;61.89
59435;BME280;45241;49.768;8.636;2023-03-01T01:02:25;101262.97;;;2.82;62.12
59435;BME280;45241;49.768;8.636;2023-03-01T01:04:50;101256.25;;;2.54;63.60
59435;BME280;45241;49.768;8.636;2023-03-01T01:07:16;101251.59;;;2.69;63.38
59435;BME280;45241;49.768;8.636;2023-03-01T01:09:42;101243.31;;;2.39;64.61
59435;BME280;45241;49.768;8.636;2023-03-01T01:12:07;101238.75;;;2.41;62.73
59435;BME280;45241;49.768;8.636;2023-03-01T01:14:33;101233.75;;;2.60;63.31
59435;BME280;45241;49.768;8.636;2023-03-01T01:16:59;101222.91;;;2.52;63.89
59435;BME280;45241;49.768;8.636;2023-03-01T01:19:25;101217.91;;;1.64;64.40
59435;BME280;45241;49.768;8.636;2023-03-01T01:21:51;101212.44;;;2.15;64.51
59435;BME280;45241;49.768;8.636;2023-03-01T01:24:17;101204.09;;;2.09;65.25
59435;BME280;45241;49.768;8.636;2023-03-01T01:26:43;101203.25;;;2.32;64.13
59435;BME280;45241;49.768;8.636;2023-03-01T01:29:09;101204.34;;;2.41;63.93
59435;BME280;45241;49.768;8.636;2023-03-01T01:31:36;101201.28;;;1.99;65.81
59435;BME280;45241;49.768;8.636;2023-03-01T01:34:04;101203.22;;;1.60;65.04
59435;BME280;45241;49.768;8.636;2023-03-01T01:36:30;101202.47;;;2.19;64.79
59435;BME280;45241;49.768;8.636;2023-03-01T01:38:55;101200.81;;;2.29;64.37
59435;BME280;45241;49.768;8.636;2023-03-01T01:41:21;101204.69;;;2.36;64.63
59435;BME280;45241;49.768;8.636;2023-03-01T01:44:08;101201.03;;;2.26;64.77
59435;BME280;45241;49.768;8.636;2023-03-01T01:46:37;101193.72;;;2.30;64.47
59435;BME280;45241;49.768;8.636;2023-03-01T01:49:09;101187.34;;;1.60;65.09
59435;BME280;45241;49.768;8.636;2023-03-01T01:51:40;101191.66;;;2.22;64.61
59435;BME280;45241;49.768;8.636;2023-03-01T01:54:15;101189.38;;;1.93;65.76
59435;BME280;45241;49.768;8.636;2023-03-01T01:56:44;101186.72;;;2.17;64.99
59435;BME280;45241;49.768;8.636;2023-03-01T01:59:13;101178.19;;;1.53;65.53
59435;BME280;45241;49.768;8.636;2023-03-01T02:01:38;101183.22;;;2.17;64.66
59435;BME280;45241;49.768;8.636;2023-03-01T02:04:04;101178.41;;;1.01;67.71
59435;BME280;45241;49.768;8.636;2023-03-01T02:06:34;101172.41;;;1.72;67.13
59435;BME280;45241;49.768;8.636;2023-03-01T02:09:05;101186.63;;;1.09;72.12
59435;BME280;45241;49.768;8.636;2023-03-01T02:11:32;101176.84;;;1.72;67.19
59435;BME280;45241;49.768;8.636;2023-03-01T02:13:58;101180.91;;;1.15;70.36
59435;BME280;45241;49.768;8.636;2023-03-01T02:16:25;101179.72;;;1.68;67.88
59435;BME280;45241;49.768;8.636;2023-03-01T02:18:51;101183.72;;;1.98;66.09
59435;BME280;45241;49.768;8.636;2023-03-01T02:23:51;101179.19;;;1.76;67.23
59435;BME280;45241;49.768;8.636;2023-03-01T02:26:42;101184.00;;;2.06;65.85
59435;BME280;45241;49.768;8.636;2023-03-01T02:29:10;101184.69;;;1.36;67.14
59435;BME280;45241;49.768;8.636;2023-03-01T02:31:35;101188.53;;;1.93;66.45
59435;BME280;45241;49.768;8.636;2023-03-01T02:34:08;101185.59;;;2.09;66.01
59435;BME280;45241;49.768;8.636;2023-03-01T02:36:36;101178.78;;;1.93;66.16
59435;BME280;45241;49.768;8.636;2023-03-01T02:39:05;101175.66;;;1.99;65.94
59435;BME280;45241;49.768;8.636;2023-03-01T02:41:39;101176.00;;;2.19;65.90
59435;BME280;45241;49.768;8.636;2023-03-01T02:44:06;101173.38;;;2.19;65.61
59435;BME280;45241;49.768;8.636;2023-03-01T02:46:31;101176.63;;;1.98;67.21
59435;BME280;45241;49.768;8.636;2023-03-01T02:48:58;101173.06;;;2.35;65.21
59435;BME280;45241;49.768;8.636;2023-03-01T02:56:45;101157.19;;;2.35;65.06
59435;BME280;45241;49.768;8.636;2023-03-01T02:59:16;101148.44;;;2.10;65.90
59435;BME280;45241;49.768;8.636;2023-03-01T03:01:43;101150.88;;;2.24;65.64
59435;BME280;45241;49.768;8.636;2023-03-01T03:04:11;101148.63;;;2.31;64.88
59435;BME280;45241;49.768;8.636;2023-03-01T03:06:45;101148.84;;;2.17;65.75
59435;BME280;45241;49.768;8.636;2023-03-01T03:09:12;101146.31;;;2.26;65.29
59435;BME280;45241;49.768;8.636;2023-03-01T03:11:38;101132.47;;;2.23;65.71
59435;BME280;45241;49.768;8.636;2023-03-01T03:14:06;101132.53;;;2.34;65.12
59435;BME280;45241;49.768;8.636;2023-03-01T03:16:43;101134.56;;;2.31;64.73
59435;BME280;45241;49.768;8.636;2023-03-01T03:19:08;101134.41;;;2.21;64.96
59435;BME280;45241;49.768;8.636;2023-03-01T03:21:34;101127.78;;;2.26;65.51
59435;BME280;45241;49.768;8.636;2023-03-01T03:23:59;101124.88;;;2.07;65.47
59435;BME280;45241;49.768;8.636;2023-03-01T03:26:25;101127.38;;;2.09;65.59
59435;BME280;45241;49.768;8.636;2023-03-01T03:28:50;101126.44;;;2.10;65.46
59435;BME280;45241;49.768;8.636;2023-03-01T03:31:16;101121.19;;;0.76;70.07
59435;BME280;45241;49.768;8.636;2023-03-01T03:33:41;101115.13;;;1.36;68.41
59435;BME280;45241;49.768;8.636;2023-03-01T03:36:07;101115.63;;;1.54;68.53
59435;BME280;45241;49.768;8.636;2023-03-01T03:38:38;101113.53;;;1.09;69.16
59435;BME280;45241;49.768;8.636;2023-03-01T03:41:06;101107.63;;;1.43;68.27
59435;BME280;45241;49.768;8.636;2023-03-01T03:43:34;101114.47;;;1.93;66.43
59435;BME280;45241;49.768;8.636;2023-03-01T03:46:00;101100.66;;;1.89;66.26
59435;BME280;45241;49.768;8.636;2023-03-01T03:48:26;101107.22;;;0.99;70.09
59435;BME280;45241;49.768;8.636;2023-03-01T03:50:53;101100.59;;;0.81;69.32
59435;BME280;45241;49.768;8.636;2023-03-01T03:53:20;101097.00;;;1.55;69.01
59435;BME280;45241;49.768;8.636;2023-03-01T03:55:46;101103.47;;;0.40;71.59
59435;BME280;45241;49.768;8.636;2023-03-01T03:58:14;101098.91;;;1.29;71.08
59435;BME280;45241;49.768;8.636;2023-03-01T04:00:42;101097.59;;;1.35;69.34
59435;BME280;45241;49.768;8.636;2023-03-01T04:03:09;101103.41;;;1.40;70.07
59435;BME280;45241;49.768;8.636;2023-03-01T04:05:36;101108.63;;;1.29;70.35
59435;BME280;45241;49.768;8.636;2023-03-01T04:08:02;101103.53;;;1.38;69.75
59435;BME280;45241;49.768;8.636;2023-03-01T04:10:29;101102.91;;;1.22;70.24
59435;BME280;45241;49.768;8.636;2023-03-01T04:12:54;101109.78;;;0.75;71.52
59435;BME280;45241;49.768;8.636;2023-03-01T04:15:24;101108.47;;;1.43;70.54
59435;BME280;45241;49.768;8.636;2023-03-01T04:17:51;101103.09;;;0.95;70.08
59435;BME280;45241;49.768;8.636;2023-03-01T04:20:25;101101.13;;;0.86;71.99
59435;BME280;45241;49.768;8.636;2023-03-01T04:23:03;101106.47;;;1.34;70.03
59435;BME280;45241;49.768;8.636;2023-03-01T04:28:07;101105.72;;;1.08;69.72
59435;BME280;45241;49.768;8.636;2023-03-01T04:30:33;101106.69;;;0.18;74.96
59435;BME280;45241;49.768;8.636;2023-03-01T04:33:04;101104.41;;;0.52;74.68
59435;BME280;45241;49.768;8.636;2023-03-01T04:35:31;101101.41;;;0.94;74.61
59435;BME280;45241;49.768;8.636;2023-03-01T04:37:56;101101.66;;;0.40;74.50
59435;BME280;45241;49.768;8.636;2023-03-01T04:40:22;101100.50;;;1.19;72.60
59435;BME280;45241;49.768;8.636;2023-03-01T04:42:47;101099.88;;;0.41;75.06
59435;BME280;45241;49.768;8.636;2023-03-01T04:45:12;101098.44;;;1.35;71.45
59435;BME280;45241;49.768;8.636;2023-03-01T04:47:42;101093.28;;;1.58;70.76
59435;BME280;45241;49.768;8.636;2023-03-01T04:50:10;101099.16;;;1.85;68.98
59435;BME280;45241;49.768;8.636;2023-03-01T04:52:36;101106.66;;;1.44;72.19
59435;BME280;45241;49.768;8.636;2023-03-01T04:55:01;101108.03;;;1.49;72.11
59435;BME280;45241;49.768;8.636;2023-03-01T04:57:28;101100.66;;;1.65;69.96
59435;BME280;45241;49.768;8.636;2023-03-01T04:59:54;101099.50;;;1.33;71.94
59435;BME280;45241;49.768;8.636;2023-03-01T05:02:19;101099.28;;;1.60;70.38
59435;BME280;45241;49.768;8.636;2023-03-01T05:04:44;101099.50;;;0.96;71.56
59435;BME280;45241;49.768;8.636;2023-03-01T05:07:09;101094.66;;;1.63;70.54
59435;BME280;45241;49.768;8.636;2023-03-01T05:09:35;101102.09;;;0.47;73.63
59435;BME280;45241;49.768;8.636;2023-03-01T05:12:00;101092.50;;;0.33;74.92
59435;BME280;45241;49.768;8.636;2023-03-01T05:14:25;101089.06;;;1.31;71.81
59435;BME280;45241;49.768;8.636;2023-03-01T05:16:51;101089.97;;;1.43;72.56
59435;BME280;45241;49.768;8.636;2023-03-01T05:19:16;101084.44;;;1.22;71.83
59435;BME280;45241;49.768;8.636;2023-03-01T05:21:43;101083.31;;;0.64;73.12
59435;BME280;45241;49.768;8.636;2023-03-01T05:24:27;101079.25;;;1.21;72.08
59435;BME280;45241;49.768;8.636;2023-03-01T05:26:53;101078.97;;;1.49;72.20
59435;BME280;45241;49.768;8.636;2023-03-01T05:29:20;101078.84;;;1.51;72.17
59435;BME280;45241;49.768;8.636;2023-03-01T05:31:51;101077.75;;;1.29;73.00
59435;BME280;45241;49.768;8.636;2023-03-01T05:34:18;101063.94;;;1.26;71.96
59435;BME280;45241;49.768;8.636;2023-03-01T05:36:44;101077.66;;;1.31;72.66
59435;BME280;45241;49.768;8.636;2023-03-01T05:39:09;101078.16;;;-0.28;79.50
59435;BME280;45241;49.768;8.636;2023-03-01T05:41:34;101075.72;;;1.09;74.88
59435;BME280;45241;49.768;8.636;2023-03-01T05:44:00;101079.34;;;0.83;75.30
59435;BME280;45241;49.768;8.636;2023-03-01T05:46:25;101074.31;;;1.16;74.48
59435;BME280;45241;49.768;8.636;2023-03-01T05:48:50;101080.97;;;0.85;74.38
59435;BME280;45241;49.768;8.636;2023-03-01T05:51:16;101074.13;;;0.19;75.48
59435;BME280;45241;49.768;8.636;2023-03-01T05:53:42;101086.75;;;1.27;72.89
59435;BME280;45241;49.768;8.636;2023-03-01T05:56:07;101087.94;;;0.23;76.39
59435;BME280;45241;49.768;8.636;2023-03-01T05:58:33;101086.22;;;1.22;73.54
59435;BME280;45241;49.768;8.636;2023-03-01T06:00:58;101088.56;;;0.77;73.56
59435;BME280;45241;49.768;8.636;2023-03-01T06:03:23;101090.81;;;1.44;72.14
59435;BME280;45241;49.768;8.636;2023-03-01T06:05:49;101082.28;;;1.64;72.03
59435;BME280;45241;49.768;8.636;2023-03-01T06:08:14;101076.91;;;1.29;73.00
59435;BME280;45241;49.768;8.636;2023-03-01T06:10:39;101072.75;;;0.39;75.98
59435;BME280;45241;49.768;8.636;2023-03-01T06:13:05;101077.66;;;1.31;72.66
59435;BME280;45241;49.768;8.636;2023-03-01T06:15:31;101077.69;;;0.18;78.72
59435;BME280;45241;49.768;8.636;2023-03-01T06:17:56;101072.25;;;0.96;75.35
59435;BME280;45241;49.768;8.636;2023-03-01T06:20:25;101077.38;;;0.73;75.36
59435;BME280;45241;49.768;8.636;2023-03-01T06:22:52;101077.91;;;0.66;76.32
59435;BME280;45241;49.768;8.636;2023-03-01T06:25:21;101074.13;;;0.44;75.37
59435;BME280;45241;49.768;8.636;2023-03-01T06:27:47;101077.09;;;0.53;74.28
59435;BME280;45241;49.768;8.636;2023-03-01T06:30:15;101080.41;;;0.80;75.44
59435;BME280;45241;49.768;8.636;2023-03-01T06:32:41;101074.22;;;0.56;75.05
59435;BME280;45241;49.768;8.636;2023-03-01T06:35:10;101071.16;;;0.62;75.14
59435;BME280;45241;49.768;8.636;2023-03-01T06:37:36;101064.09;;;1.12;73.77
59435;BME280;45241;49.768;8.636;2023-03-01T06:40:06;101068.91;;;1.54;71.65
59435;BME280;45241;49.768;8.636;2023-03-01T06:42:36;101078.03;;;1.61;71.21
59435;BME280;45241;49.768;8.636;2023-03-01T06:45:03;101076.63;;;1.68;71.42
59435;BME280;45241;49.768;8.636;2023-03-01T06:47:29;101081.50;;;1.86;70.69
59435;BME280;45241;49.768;8.636;2023-03-01T06:49:54;101077.22;;;1.96;69.68
59435;BME280;45241;49.768;8.636;2023-03-01T06:52:19;101086.88;;;2.08;69.02
59435;BME280;45241;49.768;8.636;2023-03-01T06:54:45;101080.91;;;2.17;68.86
59435;BME280;45241;49.768;8.636;2023-03-01T06:57:10;101083.63;;;1.69;71.27
59435;BME280;45241;49.768;8.636;2023-03-01T06:59:38;101077.63;;;2.14;69.85
59435;BME280;45241;49.768;8.636;2023-03-01T07:02:03;101077.09;;;1.97;71.77
59435;BME280;45241;49.768;8.636;2023-03-01T07:04:29;101073.19;;;2.25;70.13
59435;BME280;45241;49.768;8.636;2023-03-01T07:06:55;101070.34;;;2.40;69.00
59435;BME280;45241;49.768;8.636;2023-03-01T07:09:24;101068.56;;;1.94;69.93
59435;BME280;45241;49.768;8.636;2023-03-01T07:11:50;101065.63;;;2.21;71.00
59435;BME280;45241;49.768;8.636;2023-03-01T07:14:15;101057.13;;;2.51;69.82
59435;BME280;45241;49.768;8.636;2023-03-01T07:16:41;101059.44;;;2.67;69.54
59435;BME280;45241;49.768;8.636;2023-03-01T07:19:06;101053.25;;;2.33;70.61
59435;BME280;45241;49.768;8.636;2023-03-01T07:21:31;101060.50;;;2.75;69.84
59435;BME280;45241;49.768;8.636;2023-03-01T07:23:57;101051.00;;;2.84;68.97
59435;BME280;45241;49.768;8.636;2023-03-01T07:26:22;101052.88;;;3.04;68.54
59435;BME280;45241;49.768;8.636;2023-03-01T07:28:48;101048.06;;;2.98;67.92
59435;BME280;45241;49.768;8.636;2023-03-01T07:31:13;101044.34;;;3.01;68.42
59435;BME280;45241;49.768;8.636;2023-03-01T07:33:39;101048.06;;;3.09;69.39
59435;BME280;45241;49.768;8.636;2023-03-01T07:36:05;101040.84;;;3.00;67.69
59435;BME280;45241;49.768;8.636;2023-03-01T07:38:30;101045.00;;;3.25;66.88
59435;BME280;45241;49.768;8.636;2023-03-01T07:41:00;101042.66;;;3.43;66.22
59435;BME280;45241;49.768;8.636;2023-03-01T07:43:26;101041.69;;;3.01;68.67
59435;BME280;45241;49.768;8.636;2023-03-01T07:45:52;101035.22;;;3.37;65.99
59435;BME280;45241;49.768;8.636;2023-03-01T07:48:17;101030.19;;;3.34;66.43
59435;BME280;45241;49.768;8.636;2023-03-01T07:50:42;101036.25;;;3.02;66.79
59435;BME280;45241;49.768;8.636;2023-03-01T07:53:09;101024.88;;;2.79;67.33
59435;BME280;45241;49.768;8.636;2023-03-01T07:55:35;101031.72;;;3.36;68.11
59435;BME280;45241;49.768;8.636;2023-03-01T07:58:00;101019.16;;;3.50;67.33
59435;BME280;45241;49.768;8.636;2023-03-01T08:00:26;101029.94;;;3.37;65.50
59435;BME280;45241;49.768;8.636;2023-03-01T08:02:51;101024.59;;;3.48;65.93
59435;BME280;45241;49.768;8.636;2023-03-01T08:05:16;101022.16;;;3.77;64.46
59435;BME280;45241;49.768;8.636;2023-03-01T08:07:42;101021.06;;;3.59;64.32
59435;BME280;45241;49.768;8.636;2023-03-01T08:10:08;101023.13;;;3.76;63.32
59435;BME280;45241;49.768;8.636;2023-03-01T08:12:33;101019.81;;;4.25;62.92
59435;BME280;45241;49.768;8.636;2023-03-01T08:14:58;101016.88;;;3.98;62.33
59435;BME280;45241;49.768;8.636;2023-03-01T08:17:24;101021.72;;;4.44;62.45
59435;BME280;45241;49.768;8.636;2023-03-01T08:19:49;101019.63;;;3.75;63.56
59435;BME280;45241;49.768;8.636;2023-03-01T08:22:15;101020.88;;;3.92;62.73
59435;BME280;45241;49.768;8.636;2023-03-01T08:24:40;101008.94;;;4.59;61.21
59435;BME280;45241;49.768;8.636;2023-03-01T08:27:05;101012.38;;;3.78;62.44
59435;BME280;45241;49.768;8.636;2023-03-01T08:29:32;101006.63;;;4.14;61.93
59435;BME280;45241;49.768;8.636;2023-03-01T08:31:57;101009.50;;;4.32;60.56
59435;BME280;45241;49.768;8.636;2023-03-01T08:34:23;101003.91;;;4.04;62.23
59435;BME280;45241;49.768;8.636;2023-03-01T08:36:48;101008.94;;;4.07;63.13
59435;BME280;45241;49.768;8.636;2023-03-01T08:39:17;101006.50;;;4.46;61.06
59435;BME280;45241;49.768;8.636;2023-03-01T08:41:43;101002.94;;;4.26;61.14
59435;BME280;45241;49.768;8.636;2023-03-01T08:44:10;100997.91;;;4.63;60.57
59435;BME280;45241;49.768;8.636;2023-03-01T08:46:40;100993.44;;;4.64;60.40
59435;BME280;45241;49.768;8.636;2023-03-01T08:49:16;100999.69;;;4.53;60.14
59435;BME280;45241;49.768;8.636;2023-03-01T08:51:43;100986.28;;;5.05;60.02
59435;BME280;45241;49.768;8.636;2023-03-01T08:54:17;100979.34;;;4.63;59.55
59435;BME280;45241;49.768;8.636;2023-03-01T08:56:43;100986.81;;;4.89;59.18
59435;BME280;45241;49.768;8.636;2023-03-01T08:59:10;100983.06;;;5.20;59.05
59435;BME280;45241;49.768;8.636;2023-03-01T09:01:35;100987.66;;;4.99;58.97
59435;BME280;45241;49.768;8.636;2023-03-01T09:04:02;100980.97;;;5.63;58.54
59435;BME280;45241;49.768;8.636;2023-03-01T09:06:30;100977.19;;;5.36;58.01
59435;BME280;45241;49.768;8.636;2023-03-01T09:08:55;100970.97;;;4.78;57.88
59435;BME280;45241;49.768;8.636;2023-03-01T09:11:21;100970.47;;;5.03;57.85
59435;BME280;45241;49.768;8.636;2023-03-01T09:13:48;100977.78;;;5.69;58.41
59435;BME280;45241;49.768;8.636;2023-03-01T09:16:15;100973.56;;;5.66;57.38
59435;BME280;45241;49.768;8.636;2023-03-01T09:18:43;100970.50;;;5.32;57.40
59435;BME280;45241;49.768;8.636;2023-03-01T09:21:11;100963.22;;;5.34;56.77
59435;BME280;45241;49.768;8.636;2023-03-01T09:23:39;100968.25;;;5.66;56.58
59435;BME280;45241;49.768;8.636;2023-03-01T09:26:10;100951.75;;;5.43;56.38
59435;BME280;45241;49.768;8.636;2023-03-01T09:28:36;100961.81;;;5.59;57.01
59435;BME280;45241;49.768;8.636;2023-03-01T09:31:02;100939.41;;;5.71;56.86
59435;BME280;45241;49.768;8.636;2023-03-01T09:33:29;100938.03;;;5.48;57.47
59435;BME280;45241;49.768;8.636;2023-03-01T09:36:04;100948.13;;;6.10;55.87
59435;BME280;45241;49.768;8.636;2023-03-01T09:38:30;100946.88;;;6.05;55.47
59435;BME280;45241;49.768;8.636;2023-03-01T09:40:55;100935.88;;;6.18;56.10
59435;BME280;45241;49.768;8.636;2023-03-01T09:46:24;100931.03;;;6.68;54.14
59435;BME280;45241;49.768;8.636;2023-03-01T09:48:55;100915.59;;;6.71;54.08
59435;BME280;45241;49.768;8.636;2023-03-01T09:51:31;100916.59;;;6.70;54.09
59435;BME280;45241;49.768;8.636;2023-03-01T09:53:58;100922.81;;;6.61;52.90
59435;BME280;45241;49.768;8.636;2023-03-01T09:56:35;100926.78;;;7.20;53.10
59435;BME280;45241;49.768;8.636;2023-03-01T09:59:11;100928.53;;;7.29;52.77
59435;BME280;45241;49.768;8.636;2023-03-01T10:02:04;100924.59;;;6.88;52.72
59435;BME280;45241;49.768;8.636;2023-03-01T10:04:46;100925.69;;;6.68;52.09
59435;BME280;45241;49.768;8.636;2023-03-01T10:09:53;100921.69;;;7.71;50.82
59435;BME280;45241;49.768;8.636;2023-03-01T10:12:23;100931.13;;;7.83;51.26
59435;BME280;45241;49.768;8.636;2023-03-01T10:15:01;100916.59;;;8.11;49.84
59435;BME280;45241;49.768;8.636;2023-03-01T10:17:39;100917.13;;;8.49;51.63
59435;BME280;45241;49.768;8.636;2023-03-01T10:20:20;100913.44;;;7.82;50.18
59435;BME280;45241;49.768;8.636;2023-03-01T10:22:46;100913.06;;;8.03;51.37
59435;BME280;45241;49.768;8.636;2023-03-01T10:25:20;100909.81;;;8.59;49.62
59435;BME280;45241;49.768;8.636;2023-03-01T10:27:53;100905.94;;;9.20;49.65
59435;BME280;45241;49.768;8.636;2023-03-01T10:30:34;100899.81;;;8.69;49.00
59435;BME280;45241;49.768;8.636;2023-03-01T10:33:01;100898.56;;;8.47;47.76
59435;BME280;45241;49.768;8.636;2023-03-01T10:35:29;100889.25;;;7.83;48.55
59435;BME280;45241;49.768;8.636;2023-03-01T10:38:09;100887.09;;;8.63;49.29
59435;BME280;45241;49.768;8.636;2023-03-01T10:40:36;100889.16;;;8.35;47.86
59435;BME280;45241;49.768;8.636;2023-03-01T10:43:05;100888.47;;;8.67;47.85
59435;BME280;45241;49.768;8.636;2023-03-01T10:45:35;100892.63;;;8.78;48.80
59435;BME280;45241;49.768;8.636;2023-03-01T10:48:20;100886.88;;;9.39;47.72
59435;BME280;45241;49.768;8.636;2023-03-01T10:51:12;100876.50;;;9.61;45.41
59435;BME280;45241;49.768;8.636;2023-03-01T10:53:43;100872.13;;;9.84;46.88
59435;BME280;45241;49.768;8.636;2023-03-01T10:56:14;100872.66;;;9.39;47.41
59435;BME280;45241;49.768;8.636;2023-03-01T10:58:57;100871.63;;;8.99;46.13
59435;BME280;45241;49.768;8.636;2023-03-01T11:04:10;100868.47;;;9.28;45.65
59435;BME280;45241;49.768;8.636;2023-03-01T11:06:37;100868.47;;;9.61;46.59
59435;BME280;45241;49.768;8.636;2023-03-01T11:09:23;100854.09;;;9.37;46.04
59435;BME280;45241;49.768;8.636;2023-03-01T11:11:54;100848.06;;;9.27;46.14
59435;BME280;45241;49.768;8.636;2023-03-01T11:14:23;100837.53;;;9.58;46.03
59435;BME280;45241;49.768;8.636;2023-03-01T11:16:58;100839.88;;;9.61;45.33
59435;BME280;45241;49.768;8.636;2023-03-01T11:19:24;100830.91;;;9.93;45.47
59435;BME280;45241;49.768;8.636;2023-03-01T11:22:07;100825.41;;;10.88;45.44
59435;BME280;45241;49.768;8.636;2023-03-01T11:24:51;100830.19;;;10.08;44.03
59435;BME280;45241;49.768;8.636;2023-03-01T11:27:23;100815.28;;;10.44;44.36
59435;BME280;45241;49.768;8.636;2023-03-01T11:30:36;100824.22;;;10.60;44.26
59435;BME280;45241;49.768;8.636;2023-03-01T11:38:43;100818.16;;;10.66;43.83
59435;BME280;45241;49.768;8.636;2023-03-01T11:41:18;100808.16;;;11.05;44.38
59435;BME280;45241;49.768;8.636;2023-03-01T11:43:51;100801.00;;;10.98;43.35
59435;BME280;45241;49.768;8.636;2023-03-01T11:52:22;100797.25;;;10.84;43.93
59435;BME280;45241;49.768;8.636;2023-03-01T11:55:05;100787.66;;;10.67;44.34
59435;BME280;45241;49.768;8.636;2023-03-01T11:57:51;100791.34;;;10.66;43.88
59435;BME280;45241;49.768;8.636;2023-03-01T12:00:25;100792.88;;;10.37;44.28
59435;BME280;45241;49.768;8.636;2023-03-01T12:05:57;100787.38;;;10.00;43.92
59435;BME280;45241;49.768;8.636;2023-03-01T12:08:42;100781.59;;;10.50;43.27
59435;BME280;45241;49.768;8.636;2023-03-01T12:11:47;100774.69;;;10.78;43.72
59435;BME280;45241;49.768;8.636;2023-03-01T12:14:33;100774.97;;;11.21;42.34
59435;BME280;45241;49.768;8.636;2023-03-01T12:20:02;100751.31;;;10.64;43.74
59435;BME280;45241;49.768;8.636;2023-03-01T12:25:33;100736.19;;;10.48;43.21
59435;BME280;45241;49.768;8.636;2023-03-01T12:33:48;100722.38;;;10.97;43.23
59435;BME280;45241;49.768;8.636;2023-03-01T12:36:52;100716.78;;;11.51;41.94
59435;BME280;45241;49.768;8.636;2023-03-01T12:45:23;100695.44;;;10.76;41.48
59435;BME280;45241;49.768;8.636;2023-03-01T12:48:09;100690.03;;;11.13;40.91
59435;BME280;45241;49.768;8.636;2023-03-01T12:50:47;100702.50;;;12.16;40.33
59435;BME280;45241;49.768;8.636;2023-03-01T12:53:26;100689.88;;;11.44;40.36
59435;BME280;45241;49.768;8.636;2023-03-01T12:55:54;100672.88;;;11.73;40.76
59435;BME280;45241;49.768;8.636;2023-03-01T12:58:28;100678.72;;;11.77;40.85
59435;BME280;45241;49.768;8.636;2023-03-01T13:03:56;100665.97;;;11.20;40.17
59435;BME280;45241;49.768;8.636;2023-03-01T13:09:13;100675.16;;;11.40;39.92
59435;BME280;45241;49.768;8.636;2023-03-01T13:11:42;100672.25;;;11.12;40.13
59435;BME280;45241;49.768;8.636;2023-03-01T13:16:46;100659.38;;;11.23;40.51
59435;BME280;45241;49.768;8.636;2023-03-01T13:21:43;100635.91;;;12.33;39.68
59435;BME280;45241;49.768;8.636;2023-03-01T13:24:42;100632.75;;;12.29;40.04
59435;BME280;45241;49.768;8.636;2023-03-01T13:29:46;100632.84;;;11.93;40.25
59435;BME280;45241;49.768;8.636;2023-03-01T13:32:26;100630.16;;;11.93;39.80
59435;BME280;45241;49.768;8.636;2023-03-01T13:37:43;100629.97;;;12.38;39.31
59435;BME280;45241;49.768;8.636;2023-03-01T13:42:46;100626.16;;;11.89;39.72
59435;BME280;45241;49.768;8.636;2023-03-01T13:45:38;100622.09;;;11.57;39.53
59435;BME280;45241;49.768;8.636;2023-03-01T13:48:16;100611.50;;;12.56;39.21
59435;BME280;45241;49.768;8.636;2023-03-01T13:50:52;100607.06;;;12.98;39.45
59435;BME280;45241;49.768;8.636;2023-03-01T13:53:21;100602.13;;;12.45;38.68
59435;BME280;45241;49.768;8.636;2023-03-01T13:55:51;100609.09;;;11.97;38.92
59435;BME280;45241;49.768;8.636;2023-03-01T13:58:28;100593.03;;;12.46;38.05
59435;BME280;45241;49.768;8.636;2023-03-01T14:01:05;100588.06;;;12.22;37.70
59435;BME280;45241;49.768;8.636;2023-03-01T14:03:33;100603.31;;;12.43;38.98
59435;BME280;45241;49.768;8.636;2023-03-01T14:06:06;100594.97;;;12.87;38.50
59435;BME280;45241;49.768;8.636;2023-03-01T14:08:34;100588.78;;;13.28;37.37
59435;BME280;45241;49.768;8.636;2023-03-01T14:11:44;100595.84;;;12.38;37.98
59435;BME280;45241;49.768;8.636;2023-03-01T14:17:33;100592.06;;;12.88;37.41
59435;BME280;45241;49.768;8.636;2023-03-01T14:20:27;100597.69;;;13.22;36.77
59435;BME280;45241;49.768;8.636;2023-03-01T14:22:55;100592.09;;;13.23;37.89